Time;durP1;ratioP1;P1;durP2;ratioP2;P2;SDS_P1;SDS_P2;PMS_P1;PMS_P2;Temp;Humidity;BMP_temperature;BMP_pressure;BME280_temperature;BME280_humidity;BME280_pressure;Samples;Min_cycle;Max_cycle;Signal;HPM_P1;HPM_P2
2022/01/22 00:02:36;;;;;;;3.60;3.40;;;;;;;;;;5047300;28;20302;-67
2022/01/22 00:05:23;;;;;;;3.90;3.70;;;;;;;;;;5039654;28;20707;-67
2022/01/22 00:08:10;;;;;;;4.10;3.70;;;;;;;;;;5043477;28;20336;-67
2022/01/22 00:10:58;;;;;;;3.87;3.60;;;;;;;;;;5046509;28;20204;-68
2022/01/22 00:16:50;;;;;;;3.93;3.63;;;;;;;;;;5044787;28;20209;-67
2022/01/22 00:19:37;;;;;;;3.50;3.30;;;;;;;;;;5041084;28;20708;-67
2022/01/22 00:22:28;;;;;;;3.40;3.20;;;;;;;;;;5044433;28;20247;-67
2022/01/22 00:25:16;;;;;;;3.30;3.10;;;;;;;;;;5047619;28;20437;-68
2022/01/22 00:28:05;;;;;;;3.53;3.33;;;;;;;;;;5041371;28;20286;-68
2022/01/22 00:30:52;;;;;;;3.40;3.20;;;;;;;;;;5047021;28;20297;-67
2022/01/22 00:33:39;;;;;;;3.70;3.40;;;;;;;;;;5043362;28;20623;-67
2022/01/22 00:36:26;;;;;;;3.30;3.10;;;;;;;;;;5058326;28;20696;-67
2022/01/22 00:39:13;;;;;;;3.43;3.20;;;;;;;;;;5062627;28;20831;-67
2022/01/22 00:42:00;;;;;;;3.43;3.13;;;;;;;;;;5063319;28;20575;-67
2022/01/22 00:44:49;;;;;;;3.90;3.40;;;;;;;;;;5060828;28;20625;-67
2022/01/22 00:47:37;;;;;;;2.87;2.77;;;;;;;;;;5064047;28;20346;-67
2022/01/22 00:50:25;;;;;;;3.63;3.33;;;;;;;;;;5053745;28;20674;-67
2022/01/22 00:53:12;;;;;;;3.40;3.20;;;;;;;;;;5061068;28;20618;-67
2022/01/22 00:55:59;;;;;;;3.60;3.30;;;;;;;;;;5064203;28;20288;-67
2022/01/22 00:58:46;;;;;;;3.40;3.17;;;;;;;;;;5060687;28;20255;-67
2022/01/22 01:01:35;;;;;;;3.30;3.10;;;;;;;;;;5063251;28;20678;-67
2022/01/22 01:04:22;;;;;;;3.43;3.20;;;;;;;;;;5063916;28;20230;-67
2022/01/22 01:07:09;;;;;;;3.43;3.13;;;;;;;;;;5059174;28;20231;-67
2022/01/22 01:09:56;;;;;;;3.10;2.90;;;;;;;;;;5060804;28;20200;-67
2022/01/22 01:12:43;;;;;;;3.10;2.90;;;;;;;;;;5062416;28;20227;-67
2022/01/22 01:15:41;;;;;;;3.20;3.00;;;;;;;;;;5046731;28;20668;-67
2022/01/22 01:33:58;;;;;;;2.80;2.60;;;;;;;;;;5063945;28;20238;-67
2022/01/22 01:36:47;;;;;;;2.90;2.70;;;;;;;;;;5061991;28;20207;-68
2022/01/22 01:39:36;;;;;;;3.03;2.77;;;;;;;;;;5064717;28;20221;-67
2022/01/22 01:42:32;;;;;;;2.80;2.70;;;;;;;;;;5061317;28;20257;-67
2022/01/22 01:45:19;;;;;;;3.00;2.80;;;;;;;;;;5061942;28;20208;-67
2022/01/22 01:48:11;;;;;;;3.27;2.97;;;;;;;;;;5064617;28;20207;-66
2022/01/22 01:51:00;;;;;;;3.00;2.80;;;;;;;;;;5059547;28;20692;-68
2022/01/22 01:53:55;;;;;;;3.20;3.00;;;;;;;;;;5063210;28;20829;-67
2022/01/22 01:59:49;;;;;;;3.00;2.80;;;;;;;;;;5060617;28;20235;-68
2022/01/22 02:02:38;;;;;;;2.90;2.70;;;;;;;;;;5057096;28;20235;-72
2022/01/22 02:05:25;;;;;;;2.87;2.67;;;;;;;;;;5058668;28;20223;-71
2022/01/22 02:08:14;;;;;;;3.10;2.90;;;;;;;;;;5062748;28;20260;-72
2022/01/22 02:11:03;;;;;;;3.20;3.00;;;;;;;;;;5061369;28;20222;-71
2022/01/22 02:14:03;;;;;;;2.50;2.40;;;;;;;;;;5053486;28;20235;-72
2022/01/22 02:26:06;;;;;;;2.83;2.63;;;;;;;;;;5062260;28;20705;-71
2022/01/22 02:28:53;;;;;;;2.90;2.70;;;;;;;;;;5063591;28;20286;-72
2022/01/22 02:31:43;;;;;;;2.87;2.67;;;;;;;;;;5059732;28;20239;-71
2022/01/22 02:34:38;;;;;;;3.00;2.83;;;;;;;;;;5048373;28;20259;-71
2022/01/22 02:37:31;;;;;;;2.80;2.60;;;;;;;;;;5040088;28;20216;-71
2022/01/22 02:40:25;;;;;;;2.60;2.50;;;;;;;;;;5041075;28;20257;-71
2022/01/22 02:43:12;;;;;;;2.50;2.40;;;;;;;;;;5039096;28;20282;-71
2022/01/22 02:46:00;;;;;;;3.30;3.03;;;;;;;;;;5042301;28;20232;-71
2022/01/22 02:48:47;;;;;;;3.10;2.90;;;;;;;;;;5042496;28;20212;-71
2022/01/22 02:51:34;;;;;;;2.83;2.63;;;;;;;;;;5032087;28;20208;-71
2022/01/22 02:54:21;;;;;;;3.13;2.50;;;;;;;;;;5038080;28;20277;-70
2022/01/22 02:57:10;;;;;;;2.70;2.50;;;;;;;;;;5036676;28;20206;-70
2022/01/22 02:59:58;;;;;;;2.60;2.40;;;;;;;;;;5035189;28;20366;-71
2022/01/22 03:02:47;;;;;;;3.00;2.80;;;;;;;;;;5037774;28;20216;-70
2022/01/22 03:05:35;;;;;;;2.70;2.50;;;;;;;;;;5038421;28;20298;-70
2022/01/22 03:08:27;;;;;;;2.97;2.77;;;;;;;;;;5036126;28;20386;-70
2022/01/22 03:11:20;;;;;;;2.70;2.50;;;;;;;;;;5043527;28;20204;-71
2022/01/22 03:14:50;;;;;;;2.30;2.20;;;;;;;;;;5041011;28;20205;-70
2022/01/22 03:17:46;;;;;;;2.73;2.63;;;;;;;;;;5040906;28;20197;-70
2022/01/22 03:21:00;;;;;;;2.30;2.20;;;;;;;;;;5039583;28;20220;-70
2022/01/22 03:29:58;;;;;;;2.43;2.30;;;;;;;;;;5043792;28;20204;-70
2022/01/22 03:32:48;;;;;;;2.50;2.40;;;;;;;;;;5027816;28;20216;-70
2022/01/22 03:35:36;;;;;;;2.63;2.33;;;;;;;;;;5038754;28;20262;-71
2022/01/22 03:38:23;;;;;;;2.17;2.07;;;;;;;;;;5040861;28;20212;-70
2022/01/22 03:41:10;;;;;;;2.47;2.37;;;;;;;;;;5035872;28;20661;-70
2022/01/22 03:43:58;;;;;;;2.47;2.37;;;;;;;;;;5042476;28;20997;-70
2022/01/22 03:46:46;;;;;;;2.33;2.23;;;;;;;;;;5034200;28;20980;-70
2022/01/22 03:49:33;;;;;;;2.57;2.40;;;;;;;;;;5042552;28;20208;-70
2022/01/22 03:52:20;;;;;;;2.50;2.30;;;;;;;;;;5037789;28;20323;-70
2022/01/22 03:55:14;;;;;;;2.10;2.00;;;;;;;;;;5038995;28;20200;-70
2022/01/22 03:58:02;;;;;;;2.03;1.93;;;;;;;;;;5039697;28;20207;-70
2022/01/22 04:00:55;;;;;;;2.10;2.00;;;;;;;;;;5036915;28;20304;-70
2022/01/22 04:03:44;;;;;;;2.10;2.00;;;;;;;;;;5038913;28;20226;-70
2022/01/22 04:09:53;;;;;;;2.10;2.00;;;;;;;;;;5003038;28;20213;-70
2022/01/22 04:12:47;;;;;;;2.27;2.17;;;;;;;;;;4998328;28;20211;-70
2022/01/22 04:15:38;;;;;;;2.00;1.90;;;;;;;;;;5033144;28;20288;-69
2022/01/22 04:24:51;;;;;;;2.10;2.00;;;;;;;;;;5038460;28;20208;-70
2022/01/22 04:27:38;;;;;;;1.90;1.80;;;;;;;;;;5035052;28;20223;-70
2022/01/22 04:30:27;;;;;;;2.07;1.97;;;;;;;;;;5036855;28;20213;-70
2022/01/22 04:33:14;;;;;;;2.00;1.90;;;;;;;;;;5036647;28;20220;-70
2022/01/22 04:36:01;;;;;;;2.00;1.90;;;;;;;;;;5057618;28;20619;-70
2022/01/22 04:38:49;;;;;;;2.00;1.90;;;;;;;;;;5057862;28;20294;-70
2022/01/22 04:41:36;;;;;;;1.87;1.77;;;;;;;;;;5063199;28;21218;-71
2022/01/22 04:44:26;;;;;;;1.77;1.67;;;;;;;;;;5055279;28;20205;-70
2022/01/22 04:47:28;;;;;;;2.00;1.90;;;;;;;;;;5059398;28;20216;-70
2022/01/22 04:56:25;;;;;;;2.10;2.00;;;;;;;;;;5063870;28;20207;-70
2022/01/22 04:59:12;;;;;;;1.90;1.80;;;;;;;;;;5057706;28;20290;-70
2022/01/22 05:01:59;;;;;;;1.53;1.43;;;;;;;;;;5060570;28;20286;-70
2022/01/22 05:04:46;;;;;;;2.10;2.00;;;;;;;;;;5060645;28;20347;-69
2022/01/22 05:07:34;;;;;;;2.10;2.00;;;;;;;;;;5065215;28;20362;-71
2022/01/22 05:10:21;;;;;;;1.83;1.73;;;;;;;;;;5060795;28;20351;-70
2022/01/22 05:13:09;;;;;;;2.00;1.90;;;;;;;;;;5060755;28;20290;-70
2022/01/22 05:15:56;;;;;;;2.20;2.10;;;;;;;;;;5063136;28;20243;-70
2022/01/22 05:18:50;;;;;;;1.83;1.73;;;;;;;;;;5060594;28;20212;-70
2022/01/22 05:21:38;;;;;;;2.00;1.90;;;;;;;;;;5065649;28;20280;-70
2022/01/22 05:24:29;;;;;;;2.10;2.00;;;;;;;;;;5059926;28;20293;-70
2022/01/22 05:36:59;;;;;;;1.87;1.77;;;;;;;;;;5058628;28;20241;-70
2022/01/22 05:39:46;;;;;;;1.77;1.67;;;;;;;;;;5064319;28;20231;-70
2022/01/22 05:42:35;;;;;;;1.87;1.77;;;;;;;;;;5065964;28;20257;-70
2022/01/22 05:45:22;;;;;;;1.90;1.80;;;;;;;;;;5063502;28;20421;-70
2022/01/22 05:48:11;;;;;;;2.30;2.10;;;;;;;;;;5061520;28;20215;-70
2022/01/22 05:51:01;;;;;;;2.00;1.90;;;;;;;;;;5059312;28;20212;-70
2022/01/22 05:54:11;;;;;;;1.70;1.63;;;;;;;;;;5061848;28;20660;-70
2022/01/22 06:00:00;;;;;;;1.63;1.60;;;;;;;;;;5061193;28;20223;-71
2022/01/22 06:02:48;;;;;;;1.73;1.63;;;;;;;;;;5062384;28;20312;-70
2022/01/22 06:05:36;;;;;;;2.20;2.10;;;;;;;;;;5064831;28;20294;-70
2022/01/22 06:08:29;;;;;;;2.10;2.00;;;;;;;;;;5059546;28;20212;-70
2022/01/22 06:11:22;;;;;;;1.60;1.50;;;;;;;;;;5061718;28;20796;-70
2022/01/22 06:14:08;;;;;;;2.00;1.90;;;;;;;;;;5061086;28;20315;-70
2022/01/22 06:16:56;;;;;;;2.10;2.00;;;;;;;;;;5060629;28;20242;-70
2022/01/22 06:19:42;;;;;;;2.60;2.40;;;;;;;;;;5061553;28;20272;-70
2022/01/22 06:22:31;;;;;;;2.80;2.60;;;;;;;;;;5056507;28;20338;-70
2022/01/22 06:25:18;;;;;;;3.60;3.30;;;;;;;;;;5057257;28;20205;-70
2022/01/22 06:28:05;;;;;;;3.67;3.37;;;;;;;;;;5064808;28;20356;-70
2022/01/22 06:30:52;;;;;;;4.50;3.67;;;;;;;;;;5060675;28;20211;-71
2022/01/22 06:33:39;;;;;;;4.70;3.80;;;;;;;;;;5061641;28;20310;-70
2022/01/22 06:36:27;;;;;;;4.27;3.80;;;;;;;;;;5067260;28;20215;-70
2022/01/22 06:39:17;;;;;;;5.53;4.13;;;;;;;;;;5063617;28;20300;-70
2022/01/22 06:42:03;;;;;;;5.13;4.00;;;;;;;;;;5061804;28;20282;-70
2022/01/22 06:44:50;;;;;;;5.17;4.40;;;;;;;;;;5060989;28;20252;-70
2022/01/22 06:47:37;;;;;;;5.37;4.57;;;;;;;;;;5061535;28;20248;-70
2022/01/22 06:50:25;;;;;;;5.30;4.60;;;;;;;;;;5058376;28;20290;-70
2022/01/22 06:53:11;;;;;;;6.20;4.93;;;;;;;;;;5062893;28;20200;-71
2022/01/22 06:56:02;;;;;;;5.80;4.60;;;;;;;;;;5059209;28;20300;-71
2022/01/22 06:58:49;;;;;;;6.07;5.00;;;;;;;;;;5063207;28;20259;-70
2022/01/22 07:01:37;;;;;;;6.03;4.90;;;;;;;;;;5062002;28;20315;-71
2022/01/22 07:04:24;;;;;;;4.97;4.47;;;;;;;;;;5059096;28;20211;-70
2022/01/22 07:07:12;;;;;;;6.00;4.77;;;;;;;;;;5062169;28;20280;-70
2022/01/22 07:09:59;;;;;;;4.70;4.20;;;;;;;;;;5057558;28;20211;-70
2022/01/22 07:12:47;;;;;;;6.40;5.10;;;;;;;;;;5060574;28;20203;-71
2022/01/22 07:15:34;;;;;;;5.27;4.77;;;;;;;;;;5061750;28;20245;-70
2022/01/22 07:18:21;;;;;;;5.70;4.30;;;;;;;;;;5053324;28;20201;-70
2022/01/22 07:21:16;;;;;;;4.73;4.20;;;;;;;;;;5057182;28;20219;-70
2022/01/22 07:27:07;;;;;;;5.80;4.03;;;;;;;;;;5058589;28;20232;-70
2022/01/22 07:29:56;;;;;;;4.40;4.00;;;;;;;;;;5061509;28;20238;-70
2022/01/22 07:32:44;;;;;;;4.30;3.90;;;;;;;;;;5059433;28;20245;-70
2022/01/22 07:35:33;;;;;;;4.37;3.97;;;;;;;;;;5057198;28;20595;-70
2022/01/22 07:38:21;;;;;;;4.20;3.80;;;;;;;;;;5059995;28;20628;-71
2022/01/22 07:41:08;;;;;;;3.90;3.60;;;;;;;;;;5060202;28;20314;-70
2022/01/22 07:43:55;;;;;;;3.40;3.10;;;;;;;;;;5060881;28;20690;-71
2022/01/22 07:46:44;;;;;;;3.70;3.40;;;;;;;;;;5052536;28;20292;-71
2022/01/22 07:49:31;;;;;;;3.50;3.20;;;;;;;;;;5059863;28;20261;-71
2022/01/22 07:52:18;;;;;;;3.33;3.03;;;;;;;;;;5058927;28;20304;-71
2022/01/22 07:55:06;;;;;;;3.37;3.17;;;;;;;;;;5058041;28;20359;-70
2022/01/22 07:57:53;;;;;;;4.30;3.37;;;;;;;;;;5058494;28;20298;-71
2022/01/22 08:00:40;;;;;;;3.30;3.00;;;;;;;;;;5051656;28;20703;-70
2022/01/22 08:03:29;;;;;;;3.07;2.83;;;;;;;;;;5060224;28;20308;-70
2022/01/22 08:06:16;;;;;;;3.33;3.03;;;;;;;;;;5060772;28;20272;-71
2022/01/22 08:09:05;;;;;;;2.80;2.60;;;;;;;;;;5052056;28;20202;-71
2022/01/22 08:11:52;;;;;;;2.70;2.50;;;;;;;;;;5058689;28;20231;-71
2022/01/22 08:14:39;;;;;;;2.60;2.43;;;;;;;;;;5066133;28;20304;-71
2022/01/22 08:17:26;;;;;;;2.60;2.40;;;;;;;;;;5058425;28;20285;-71
2022/01/22 08:20:16;;;;;;;3.00;2.80;;;;;;;;;;5056063;28;20380;-71
2022/01/22 08:23:03;;;;;;;3.00;2.70;;;;;;;;;;5058576;28;20697;-71
2022/01/22 08:25:50;;;;;;;2.90;2.70;;;;;;;;;;5063107;28;20273;-71
2022/01/22 08:28:57;;;;;;;3.10;2.90;;;;;;;;;;5064634;28;20698;-71
2022/01/22 08:31:52;;;;;;;2.93;2.73;;;;;;;;;;5057648;28;20203;-71
2022/01/22 08:37:45;;;;;;;2.90;2.70;;;;;;;;;;5055880;28;20212;-71
2022/01/22 08:40:32;;;;;;;3.10;2.90;;;;;;;;;;5063083;28;20282;-71
2022/01/22 08:43:19;;;;;;;3.10;2.90;;;;;;;;;;5061202;28;20298;-71
2022/01/22 08:46:06;;;;;;;3.20;3.00;;;;;;;;;;5062844;28;20337;-71
2022/01/22 08:48:53;;;;;;;3.17;2.97;;;;;;;;;;5061870;28;20299;-71
2022/01/22 08:51:40;;;;;;;3.10;2.90;;;;;;;;;;5061491;28;20228;-71
2022/01/22 08:54:29;;;;;;;3.00;2.80;;;;;;;;;;5062164;28;20200;-71
2022/01/22 08:57:17;;;;;;;2.90;2.70;;;;;;;;;;5060996;28;20272;-71
2022/01/22 09:00:06;;;;;;;3.30;3.10;;;;;;;;;;5062739;28;20266;-71
2022/01/22 09:02:53;;;;;;;3.03;2.83;;;;;;;;;;5060350;28;20365;-71
2022/01/22 09:05:41;;;;;;;2.90;2.70;;;;;;;;;;5063865;28;20692;-71
2022/01/22 09:08:28;;;;;;;3.10;2.90;;;;;;;;;;5063652;28;20196;-71
2022/01/22 09:11:17;;;;;;;3.23;3.03;;;;;;;;;;5064898;28;20204;-71
2022/01/22 09:14:07;;;;;;;3.10;2.90;;;;;;;;;;5062785;28;20206;-71
2022/01/22 09:16:55;;;;;;;3.27;3.07;;;;;;;;;;5061475;28;20287;-70
2022/01/22 09:19:46;;;;;;;2.77;2.57;;;;;;;;;;5062738;28;20199;-71
2022/01/22 09:22:33;;;;;;;2.93;2.73;;;;;;;;;;5060501;28;20220;-71
2022/01/22 09:25:20;;;;;;;2.90;2.70;;;;;;;;;;5060019;28;20204;-72
2022/01/22 09:28:11;;;;;;;2.87;2.77;;;;;;;;;;5062000;28;21000;-71
2022/01/22 09:30:58;;;;;;;2.80;2.60;;;;;;;;;;5060316;28;20219;-71
2022/01/22 09:33:45;;;;;;;2.53;2.43;;;;;;;;;;5040020;28;20313;-72
2022/01/22 09:36:33;;;;;;;2.30;2.20;;;;;;;;;;5062579;28;20715;-70
2022/01/22 09:39:20;;;;;;;2.87;2.67;;;;;;;;;;5060782;28;20284;-71
2022/01/22 09:42:07;;;;;;;2.60;2.50;;;;;;;;;;5053210;28;20252;-71
2022/01/22 09:44:55;;;;;;;2.70;2.50;;;;;;;;;;5051595;28;20612;-70
2022/01/22 09:47:46;;;;;;;2.27;2.17;;;;;;;;;;5058940;28;20208;-71
2022/01/22 09:50:34;;;;;;;2.57;2.40;;;;;;;;;;5064229;28;20331;-71
2022/01/22 09:53:22;;;;;;;2.60;2.40;;;;;;;;;;5058561;28;20341;-72
2022/01/22 09:56:10;;;;;;;2.13;2.03;;;;;;;;;;5061747;28;20237;-71
2022/01/22 09:58:58;;;;;;;2.27;2.17;;;;;;;;;;5062302;28;20210;-71
2022/01/22 10:01:48;;;;;;;2.60;2.50;;;;;;;;;;5059312;28;20228;-71
2022/01/22 10:04:36;;;;;;;2.00;1.90;;;;;;;;;;5062954;28;20273;-71
2022/01/22 10:07:24;;;;;;;2.27;2.17;;;;;;;;;;5060427;28;20213;-71
2022/01/22 10:10:11;;;;;;;2.33;2.23;;;;;;;;;;5061153;28;20361;-71
2022/01/22 10:12:59;;;;;;;2.23;2.13;;;;;;;;;;5047489;28;20212;-70
2022/01/22 10:15:46;;;;;;;2.43;2.23;;;;;;;;;;5055443;28;20208;-71
2022/01/22 10:18:34;;;;;;;1.90;1.80;;;;;;;;;;5058740;28;20247;-71
2022/01/22 10:21:21;;;;;;;2.07;1.97;;;;;;;;;;5061549;28;20231;-71
2022/01/22 10:24:33;;;;;;;1.90;1.80;;;;;;;;;;5062079;28;20294;-71
2022/01/22 10:27:29;;;;;;;1.90;1.80;;;;;;;;;;5061167;28;20365;-71
2022/01/22 10:30:18;;;;;;;1.80;1.70;;;;;;;;;;5060648;28;20656;-71
2022/01/22 10:33:23;;;;;;;2.10;2.00;;;;;;;;;;5056546;28;20200;-71
2022/01/22 10:36:15;;;;;;;1.73;1.73;;;;;;;;;;5062275;28;20288;-71
2022/01/22 10:39:07;;;;;;;1.77;1.67;;;;;;;;;;5060647;28;20237;-70
2022/01/22 10:41:54;;;;;;;1.97;1.93;;;;;;;;;;5057501;28;20282;-71
2022/01/22 10:44:46;;;;;;;2.03;1.93;;;;;;;;;;5061332;28;20356;-71
2022/01/22 10:47:34;;;;;;;1.80;1.70;;;;;;;;;;5057581;28;20682;-71
2022/01/22 10:50:23;;;;;;;1.97;1.87;;;;;;;;;;5063022;28;20205;-71
2022/01/22 10:53:11;;;;;;;2.20;2.00;;;;;;;;;;5059815;28;20230;-68
2022/01/22 10:56:03;;;;;;;1.90;1.80;;;;;;;;;;5059041;28;20229;-68
2022/01/22 10:59:02;;;;;;;2.07;1.97;;;;;;;;;;5061109;28;20208;-68
2022/01/22 11:01:52;;;;;;;2.00;1.90;;;;;;;;;;5060612;28;20264;-68
2022/01/22 11:04:41;;;;;;;1.90;1.80;;;;;;;;;;5059561;28;20758;-69
2022/01/22 11:07:28;;;;;;;1.83;1.73;;;;;;;;;;5058385;28;20201;-68
2022/01/22 11:10:17;;;;;;;2.13;2.03;;;;;;;;;;5059058;28;20266;-68
2022/01/22 11:13:04;;;;;;;1.87;1.87;;;;;;;;;;5056480;28;20233;-68
2022/01/22 11:15:52;;;;;;;2.10;2.00;;;;;;;;;;5058134;28;20294;-68
2022/01/22 11:18:42;;;;;;;2.47;2.27;;;;;;;;;;5062181;28;20204;-68
2022/01/22 11:21:30;;;;;;;2.40;2.30;;;;;;;;;;5058810;28;20252;-69
2022/01/22 11:24:20;;;;;;;2.07;1.97;;;;;;;;;;5062475;28;20277;-68
2022/01/22 11:27:10;;;;;;;2.57;2.30;;;;;;;;;;5060694;28;20239;-68
2022/01/22 11:30:02;;;;;;;2.43;2.23;;;;;;;;;;5056743;28;20622;-68
2022/01/22 11:32:53;;;;;;;2.30;2.20;;;;;;;;;;5059647;28;20310;-68
2022/01/22 11:36:01;;;;;;;2.50;2.30;;;;;;;;;;5056421;28;20881;-69
2022/01/22 11:38:54;;;;;;;2.40;2.30;;;;;;;;;;5056472;28;20725;-68
2022/01/22 11:41:52;;;;;;;2.30;2.20;;;;;;;;;;5051831;28;20239;-68
2022/01/22 11:44:48;;;;;;;1.97;1.87;;;;;;;;;;5063065;28;20197;-68
2022/01/22 11:47:34;;;;;;;2.10;2.00;;;;;;;;;;5059709;28;20200;-68
2022/01/22 11:50:23;;;;;;;3.70;2.40;;;;;;;;;;5050521;28;20220;-68
2022/01/22 11:53:23;;;;;;;2.00;1.90;;;;;;;;;;5060906;28;20243;-68
2022/01/22 11:56:25;;;;;;;2.40;2.20;;;;;;;;;;5057080;28;20244;-68
2022/01/22 11:59:26;;;;;;;2.67;2.47;;;;;;;;;;5065279;28;20538;-69
2022/01/22 12:02:16;;;;;;;2.40;2.20;;;;;;;;;;5064466;28;20289;-68
2022/01/22 12:05:05;;;;;;;3.00;2.40;;;;;;;;;;5062730;28;20312;-68
2022/01/22 12:07:59;;;;;;;2.07;1.90;;;;;;;;;;5062195;28;20227;-68
2022/01/22 12:14:27;;;;;;;2.73;2.23;;;;;;;;;;5062231;28;20240;-68
2022/01/22 12:17:03;;;;;;;2.43;2.27;;;;;;;;;;5065556;28;20204;-68
2022/01/22 12:20:05;;;;;;;1.90;1.80;;;;;;;;;;5063138;28;20304;-68
2022/01/22 12:22:52;;;;;;;1.90;1.80;;;;;;;;;;5067313;28;20225;-68
2022/01/22 12:25:51;;;;;;;2.77;2.40;;;;;;;;;;5065346;28;20218;-68
2022/01/22 12:28:40;;;;;;;2.03;1.93;;;;;;;;;;5060371;28;20207;-68
2022/01/22 12:31:28;;;;;;;2.30;2.20;;;;;;;;;;5062360;28;20210;-68
2022/01/22 12:34:15;;;;;;;2.27;2.13;;;;;;;;;;5057237;28;20706;-68
2022/01/22 12:39:56;;;;;;;1.80;1.70;;;;;;;;;;5174455;27;20554;-69
2022/01/22 12:42:53;;;;;;;1.70;1.60;;;;;;;;;;5119768;27;20209;-69
2022/01/22 12:45:44;;;;;;;1.53;1.53;;;;;;;;;;5119851;27;20201;-69
2022/01/22 12:48:33;;;;;;;1.63;1.53;;;;;;;;;;5115904;27;20209;-69
2022/01/22 12:51:25;;;;;;;2.07;1.63;;;;;;;;;;5118798;27;20266;-68
2022/01/22 12:54:12;;;;;;;1.50;1.50;;;;;;;;;;5115126;27;20210;-68
2022/01/22 12:57:05;;;;;;;2.10;1.73;;;;;;;;;;5121002;27;20287;-68
2022/01/22 13:00:01;;;;;;;1.80;1.70;;;;;;;;;;5118554;27;20280;-69
2022/01/22 13:02:50;;;;;;;1.70;1.60;;;;;;;;;;5114627;28;20205;-68
2022/01/22 13:05:37;;;;;;;2.23;1.63;;;;;;;;;;5121928;27;20204;-69
2022/01/22 13:08:28;;;;;;;1.67;1.57;;;;;;;;;;5116609;27;20233;-69
2022/01/22 13:11:18;;;;;;;1.30;1.30;;;;;;;;;;5118746;27;20585;-66
2022/01/22 13:14:07;;;;;;;2.80;1.43;;;;;;;;;;5121271;27;20207;-69
2022/01/22 13:16:56;;;;;;;1.60;1.50;;;;;;;;;;5115695;27;20283;-69
2022/01/22 13:19:43;;;;;;;1.60;1.50;;;;;;;;;;5116701;27;20234;-68
2022/01/22 13:22:37;;;;;;;1.37;1.27;;;;;;;;;;5120282;27;20277;-68
2022/01/22 13:25:24;;;;;;;1.77;1.40;;;;;;;;;;5120452;27;20229;-69
2022/01/22 13:28:12;;;;;;;1.37;1.30;;;;;;;;;;5117728;27;20259;-68
2022/01/22 13:31:09;;;;;;;1.30;1.20;;;;;;;;;;5115383;28;20310;-68
2022/01/22 13:34:13;;;;;;;1.33;1.23;;;;;;;;;;5117166;27;20215;-68
2022/01/22 13:37:37;;;;;;;1.43;1.30;;;;;;;;;;5112736;28;20277;-69
2022/01/22 13:40:36;;;;;;;1.10;1.10;;;;;;;;;;5116975;27;20212;-68
2022/01/22 13:49:40;;;;;;;1.30;1.13;;;;;;;;;;5113595;27;20545;-68
2022/01/22 13:52:29;;;;;;;1.73;1.20;;;;;;;;;;5101450;27;20440;-68
2022/01/22 13:55:16;;;;;;;1.20;1.20;;;;;;;;;;5100171;27;20274;-68
2022/01/22 13:58:03;;;;;;;1.00;1.00;;;;;;;;;;5103094;27;20657;-69
2022/01/22 14:00:50;;;;;;;1.67;1.10;;;;;;;;;;5101586;28;20235;-69
2022/01/22 14:03:44;;;;;;;1.07;1.00;;;;;;;;;;5105898;27;20682;-68
2022/01/22 14:06:32;;;;;;;1.37;1.13;;;;;;;;;;5104825;28;20214;-68
2022/01/22 14:09:22;;;;;;;1.50;1.00;;;;;;;;;;5103198;28;20252;-68
2022/01/22 14:12:12;;;;;;;1.00;0.90;;;;;;;;;;5101841;27;20326;-69
2022/01/22 14:15:01;;;;;;;1.20;1.20;;;;;;;;;;5100130;28;20206;-68
2022/01/22 14:18:06;;;;;;;0.90;0.90;;;;;;;;;;5104172;27;20217;-69
2022/01/22 14:20:56;;;;;;;2.53;1.10;;;;;;;;;;5104369;27;20202;-68
2022/01/22 14:23:44;;;;;;;1.03;1.03;;;;;;;;;;5102652;28;20209;-66
2022/01/22 14:26:34;;;;;;;1.27;1.20;;;;;;;;;;5101062;27;20222;-68
2022/01/22 14:29:21;;;;;;;1.40;1.30;;;;;;;;;;5102819;28;20202;-68
2022/01/22 14:32:17;;;;;;;1.97;1.37;;;;;;;;;;5103805;27;20209;-69
2022/01/22 14:35:20;;;;;;;1.50;1.40;;;;;;;;;;5103066;28;20229;-69
2022/01/22 14:38:39;;;;;;;1.30;1.20;;;;;;;;;;5103176;28;20302;-69
2022/01/22 14:44:34;;;;;;;1.30;1.20;;;;;;;;;;5099632;27;20210;-68
2022/01/22 14:47:23;;;;;;;1.17;1.07;;;;;;;;;;5104255;27;20231;-68
2022/01/22 14:50:12;;;;;;;2.23;1.20;;;;;;;;;;5101915;27;20285;-68
2022/01/22 14:53:00;;;;;;;1.50;1.40;;;;;;;;;;5100201;28;20224;-68
2022/01/22 14:55:58;;;;;;;1.23;1.23;;;;;;;;;;5102658;28;20217;-68
2022/01/22 14:58:45;;;;;;;1.17;1.17;;;;;;;;;;5099705;27;20302;-68
2022/01/22 15:01:32;;;;;;;1.40;1.30;;;;;;;;;;5101655;28;20297;-68
2022/01/22 15:04:19;;;;;;;1.20;1.10;;;;;;;;;;5096773;28;20278;-68
2022/01/22 15:07:08;;;;;;;1.10;1.00;;;;;;;;;;5102524;27;20620;-69
2022/01/22 15:09:56;;;;;;;1.17;1.10;;;;;;;;;;5100756;28;20292;-68
2022/01/22 15:12:44;;;;;;;1.20;1.10;;;;;;;;;;5102204;28;20198;-68
2022/01/22 15:15:35;;;;;;;1.57;1.20;;;;;;;;;;5105766;27;20289;-68
2022/01/22 15:18:49;;;;;;;1.10;1.00;;;;;;;;;;5101080;28;20206;-69
2022/01/22 15:21:33;;;;;;;1.20;1.10;;;;;;;;;;5104526;27;20210;-68
2022/01/22 15:24:20;;;;;;;1.23;1.13;;;;;;;;;;5098236;27;20281;-68
2022/01/22 15:27:08;;;;;;;1.33;0.90;;;;;;;;;;5101568;28;20350;-69
2022/01/22 15:29:59;;;;;;;1.07;0.90;;;;;;;;;;5104858;27;20319;-69
2022/01/22 15:32:54;;;;;;;1.10;1.10;;;;;;;;;;5103958;27;20201;-69
2022/01/22 15:35:41;;;;;;;1.03;1.03;;;;;;;;;;5101121;28;20362;-69
2022/01/22 15:38:28;;;;;;;1.10;1.10;;;;;;;;;;5097948;28;20781;-69
2022/01/22 15:41:15;;;;;;;0.90;0.90;;;;;;;;;;5099058;28;20198;-69
2022/01/22 15:44:04;;;;;;;1.00;1.00;;;;;;;;;;5103143;27;20319;-69
2022/01/22 15:46:52;;;;;;;0.97;0.90;;;;;;;;;;5100000;28;20207;-69
2022/01/22 15:49:43;;;;;;;1.70;0.80;;;;;;;;;;5102122;27;20206;-69
2022/01/22 15:52:31;;;;;;;1.00;1.00;;;;;;;;;;5100180;27;20597;-68
2022/01/22 15:55:18;;;;;;;0.97;0.90;;;;;;;;;;5103006;28;20209;-69
2022/01/22 15:58:05;;;;;;;1.67;1.10;;;;;;;;;;5098829;27;20206;-69
2022/01/22 16:00:52;;;;;;;1.20;1.20;;;;;;;;;;5100540;28;20297;-69
2022/01/22 16:03:44;;;;;;;0.90;0.90;;;;;;;;;;5101131;27;20209;-68
2022/01/22 16:06:44;;;;;;;1.17;1.17;;;;;;;;;;5097662;28;20213;-69
2022/01/22 16:09:32;;;;;;;1.20;1.10;;;;;;;;;;5101702;28;20683;-68
2022/01/22 16:12:20;;;;;;;1.57;1.20;;;;;;;;;;5099948;27;20229;-68
2022/01/22 16:15:08;;;;;;;1.10;1.10;;;;;;;;;;5098030;28;20680;-68
2022/01/22 16:17:55;;;;;;;0.93;0.93;;;;;;;;;;5101906;27;20237;-68
2022/01/22 16:20:44;;;;;;;1.17;1.17;;;;;;;;;;5096299;28;20682;-68
2022/01/22 16:23:31;;;;;;;2.20;1.40;;;;;;;;;;5104101;27;20611;-68
2022/01/22 16:26:18;;;;;;;0.97;0.97;;;;;;;;;;5092803;28;20705;-68
2022/01/22 16:29:06;;;;;;;1.40;1.30;;;;;;;;;;5103081;27;20206;-69
2022/01/22 16:31:53;;;;;;;1.87;1.10;;;;;;;;;;5098080;27;20745;-69
2022/01/22 16:34:40;;;;;;;1.93;1.17;;;;;;;;;;5099758;28;20226;-69
2022/01/22 16:37:28;;;;;;;2.13;1.03;;;;;;;;;;5103030;28;20207;-69
2022/01/22 16:40:23;;;;;;;1.37;1.23;;;;;;;;;;5096675;28;20230;-69
2022/01/22 16:43:10;;;;;;;2.33;1.60;;;;;;;;;;5104107;28;20213;-68
2022/01/22 16:46:25;;;;;;;1.20;1.10;;;;;;;;;;5101555;28;20293;-68
2022/01/22 16:52:40;;;;;;;1.47;1.37;;;;;;;;;;5100710;28;20684;-68
2022/01/22 16:55:38;;;;;;;1.30;1.20;;;;;;;;;;5094714;28;20720;-69
2022/01/22 16:58:32;;;;;;;1.40;1.23;;;;;;;;;;5102540;28;20848;-68
2022/01/22 17:01:26;;;;;;;1.23;1.23;;;;;;;;;;5097785;28;20550;-69
2022/01/22 17:04:18;;;;;;;1.53;1.37;;;;;;;;;;5094816;28;20204;-69
2022/01/22 17:07:06;;;;;;;1.50;1.40;;;;;;;;;;5101306;28;20213;-68
2022/01/22 17:10:15;;;;;;;1.60;1.50;;;;;;;;;;5099927;28;20210;-69
2022/01/22 17:16:08;;;;;;;1.87;1.60;;;;;;;;;;5097710;28;20209;-69
2022/01/22 17:18:55;;;;;;;2.20;1.60;;;;;;;;;;5096790;28;20202;-69
2022/01/22 17:21:42;;;;;;;1.63;1.53;;;;;;;;;;5098784;28;20221;-68
2022/01/22 17:24:29;;;;;;;1.50;1.40;;;;;;;;;;5096735;28;20225;-68
2022/01/22 17:27:19;;;;;;;1.37;1.30;;;;;;;;;;5103778;27;20245;-69
2022/01/22 17:30:08;;;;;;;1.27;1.27;;;;;;;;;;5103667;27;20273;-68
2022/01/22 17:32:55;;;;;;;1.57;1.47;;;;;;;;;;5105654;28;20247;-68
2022/01/22 17:35:42;;;;;;;2.33;1.40;;;;;;;;;;5104392;27;20641;-70
2022/01/22 17:38:29;;;;;;;1.70;1.60;;;;;;;;;;5100877;28;20784;-68
2022/01/22 17:41:16;;;;;;;1.70;1.60;;;;;;;;;;5106710;28;20199;-69
2022/01/22 17:44:08;;;;;;;1.70;1.33;;;;;;;;;;5102677;27;20206;-68
2022/01/22 17:46:56;;;;;;;1.50;1.40;;;;;;;;;;5102110;28;20211;-68
2022/01/22 17:49:44;;;;;;;1.57;1.47;;;;;;;;;;5105701;27;20329;-68
2022/01/22 17:52:31;;;;;;;1.50;1.40;;;;;;;;;;5103118;27;20204;-69
2022/01/22 17:55:17;;;;;;;1.70;1.60;;;;;;;;;;5105807;27;20242;-69
2022/01/22 17:58:05;;;;;;;2.30;1.70;;;;;;;;;;5099030;28;20229;-69
2022/01/22 18:00:52;;;;;;;1.10;1.10;;;;;;;;;;5105229;28;20232;-69
2022/01/22 18:03:49;;;;;;;1.60;1.50;;;;;;;;;;5098706;28;20692;-68
2022/01/22 18:06:38;;;;;;;1.60;1.50;;;;;;;;;;5103382;28;20331;-69
2022/01/22 18:09:26;;;;;;;2.57;1.80;;;;;;;;;;5106358;27;20218;-69
2022/01/22 18:12:13;;;;;;;1.97;1.73;;;;;;;;;;5100982;28;20293;-69
2022/01/22 18:15:00;;;;;;;1.63;1.53;;;;;;;;;;5104444;27;20278;-69
2022/01/22 18:17:47;;;;;;;1.40;1.30;;;;;;;;;;5099641;27;20222;-68
2022/01/22 18:20:35;;;;;;;1.47;1.37;;;;;;;;;;5103657;28;20346;-68
2022/01/22 18:23:22;;;;;;;1.77;1.67;;;;;;;;;;5106019;27;20225;-68
2022/01/22 18:26:09;;;;;;;1.60;1.50;;;;;;;;;;5099973;28;20264;-69
2022/01/22 18:28:57;;;;;;;1.50;1.40;;;;;;;;;;5105003;28;20220;-69
2022/01/22 18:31:44;;;;;;;1.47;1.40;;;;;;;;;;5098154;28;20210;-69
2022/01/22 18:34:34;;;;;;;2.63;1.50;;;;;;;;;;5101302;27;20234;-69